Time;durP1;ratioP1;P1;durP2;ratioP2;P2;SDS_P1;SDS_P2;PMS_P1;PMS_P2;Temp;Humidity;BMP_temperature;BMP_pressure;BME280_temperature;BME280_humidity;BME280_pressure;Samples;Min_cycle;Max_cycle;Signal;HPM_P1;HPM_P2
2021/07/06 00:00:17;;;;;;;10.93;9.82;;;21.70;99.90;;;;;;5064002;28;20029;-67
2021/07/06 00:02:44;;;;;;;10.85;9.20;;;21.70;99.90;;;;;;5076161;28;20044;-67
2021/07/06 00:05:11;;;;;;;10.93;9.68;;;21.70;99.90;;;;;;5069260;28;20434;-66
2021/07/06 00:07:37;;;;;;;10.75;9.65;;;21.70;99.90;;;;;;5084045;28;20058;-64
2021/07/06 00:10:05;;;;;;;12.07;10.43;;;21.70;99.90;;;;;;5085812;28;20028;-64
2021/07/06 00:12:31;;;;;;;11.55;10.40;;;21.70;99.90;;;;;;5028846;28;20105;-62
2021/07/06 00:14:57;;;;;;;11.38;9.77;;;21.70;99.90;;;;;;5054948;28;20028;-65
2021/07/06 00:17:23;;;;;;;11.18;10.07;;;21.70;99.90;;;;;;5084096;28;20472;-59
2021/07/06 00:19:49;;;;;;;11.00;9.60;;;21.70;99.90;;;;;;5078345;28;20451;-55
2021/07/06 00:22:16;;;;;;;10.82;9.75;;;21.70;99.90;;;;;;5080146;28;20035;-59
2021/07/06 00:24:42;;;;;;;10.15;9.07;;;21.70;99.90;;;;;;5075089;28;20036;-68
2021/07/06 00:27:07;;;;;;;9.52;8.50;;;21.70;99.90;;;;;;5053499;28;20040;-59
2021/07/06 00:29:34;;;;;;;11.40;9.93;;;21.80;99.90;;;;;;5076628;28;20035;-64
2021/07/06 00:32:00;;;;;;;12.55;9.10;;;21.80;99.90;;;;;;5082759;28;20041;-59
2021/07/06 00:34:26;;;;;;;11.70;8.70;;;21.80;99.90;;;;;;5070296;28;20480;-62
2021/07/06 00:36:52;;;;;;;9.95;8.75;;;21.80;99.90;;;;;;5077054;28;20047;-60
2021/07/06 00:39:18;;;;;;;10.43;8.23;;;21.80;99.90;;;;;;5071630;28;20027;-61
2021/07/06 00:41:44;;;;;;;11.65;8.30;;;21.80;99.90;;;;;;5089038;28;20107;-58
2021/07/06 00:44:19;;;;;;;9.43;8.48;;;21.80;99.90;;;;;;5070421;28;20029;-59
2021/07/06 00:46:45;;;;;;;10.02;8.75;;;21.70;99.90;;;;;;5074009;28;20020;-62
2021/07/06 00:49:11;;;;;;;9.77;8.77;;;21.70;99.90;;;;;;5038144;28;20442;-66
2021/07/06 00:51:37;;;;;;;10.20;9.20;;;21.70;99.90;;;;;;5041063;28;20065;-61
2021/07/06 00:54:05;;;;;;;8.68;7.80;;;21.60;99.90;;;;;;5076699;28;20037;-66
2021/07/06 00:56:32;;;;;;;9.88;8.45;;;21.60;99.90;;;;;;5053158;28;20098;-63
2021/07/06 00:58:57;;;;;;;10.23;8.68;;;21.50;99.90;;;;;;5076353;28;20032;-59
2021/07/06 01:01:23;;;;;;;9.50;8.60;;;21.50;99.90;;;;;;5082794;28;20468;-61
2021/07/06 01:03:49;;;;;;;9.63;8.65;;;21.40;99.90;;;;;;5084121;28;20024;-61
2021/07/06 01:06:18;;;;;;;10.13;9.15;;;21.40;99.90;;;;;;5070672;28;20032;-66
2021/07/06 01:08:45;;;;;;;9.57;8.57;;;21.40;99.90;;;;;;5077170;28;20108;-61
2021/07/06 01:11:15;;;;;;;9.80;8.75;;;21.40;99.90;;;;;;5077752;28;20064;-58
2021/07/06 01:13:40;;;;;;;10.90;9.20;;;21.30;99.90;;;;;;5076531;28;20395;-59
2021/07/06 01:16:06;;;;;;;10.93;9.15;;;21.30;99.90;;;;;;5081106;28;20040;-58
2021/07/06 01:18:33;;;;;;;9.60;8.70;;;21.30;99.90;;;;;;5039567;28;20043;-63
2021/07/06 01:20:59;;;;;;;10.88;8.40;;;21.20;99.90;;;;;;5079371;28;20039;-64
2021/07/06 01:23:29;;;;;;;9.80;8.05;;;21.20;99.90;;;;;;5075095;28;20468;-65
2021/07/06 01:25:57;;;;;;;10.10;8.80;;;21.20;99.90;;;;;;5086493;28;20490;-59
2021/07/06 01:28:24;;;;;;;10.13;9.10;;;21.20;99.90;;;;;;5066828;28;20032;-61
2021/07/06 01:30:50;;;;;;;9.85;8.32;;;21.20;99.90;;;;;;5074764;28;20551;-67
2021/07/06 01:33:35;;;;;;;11.13;9.27;;;21.20;99.90;;;;;;5030386;28;20136;-61
2021/07/06 01:36:05;;;;;;;10.35;9.35;;;21.20;99.90;;;;;;5069597;28;20048;-56
2021/07/06 01:38:31;;;;;;;9.82;8.80;;;21.30;99.90;;;;;;5075471;28;20468;-60
2021/07/06 01:40:58;;;;;;;10.63;9.63;;;21.30;99.90;;;;;;5077892;28;20052;-61
2021/07/06 01:43:24;;;;;;;10.43;9.18;;;21.30;99.90;;;;;;5084008;28;20045;-60
2021/07/06 01:45:50;;;;;;;9.70;8.73;;;21.30;99.90;;;;;;5065824;28;20498;-65
2021/07/06 01:48:16;;;;;;;9.43;8.43;;;21.40;99.90;;;;;;5075385;28;20407;-63
2021/07/06 01:50:46;;;;;;;9.75;8.77;;;21.40;99.90;;;;;;5081514;28;20475;-60
2021/07/06 01:53:15;;;;;;;9.40;8.32;;;21.50;99.90;;;;;;5079664;28;20062;-66
2021/07/06 01:55:46;;;;;;;9.80;8.80;;;21.50;99.90;;;;;;5074520;28;20043;-67
2021/07/06 01:58:15;;;;;;;11.00;8.05;;;21.50;99.90;;;;;;5082823;28;20050;-60
2021/07/06 02:00:47;;;;;;;9.40;8.50;;;21.50;99.90;;;;;;5076330;28;20517;-62
2021/07/06 02:03:13;;;;;;;9.35;8.40;;;21.50;99.90;;;;;;5073050;28;20430;-59
2021/07/06 02:05:39;;;;;;;9.75;8.75;;;21.50;99.90;;;;;;5080637;28;20036;-64
2021/07/06 02:08:14;;;;;;;11.48;9.38;;;21.40;99.90;;;;;;5076122;28;20033;-60
2021/07/06 02:10:42;;;;;;;9.75;8.85;;;21.40;99.90;;;;;;5085071;28;20024;-61
2021/07/06 02:13:14;;;;;;;10.10;9.10;;;21.30;99.90;;;;;;5074167;28;20386;-61
2021/07/06 02:15:41;;;;;;;14.73;9.85;;;21.30;99.90;;;;;;5059988;28;20047;-65
2021/07/06 02:18:14;;;;;;;13.75;9.75;;;21.20;99.90;;;;;;5022030;28;20033;-68
2021/07/06 02:20:40;;;;;;;9.02;8.07;;;21.10;99.90;;;;;;5056761;28;20063;-58
2021/07/06 02:23:06;;;;;;;10.10;9.05;;;21.10;99.90;;;;;;5055116;28;20499;-64
2021/07/06 02:25:32;;;;;;;12.75;10.15;;;21.00;99.90;;;;;;5027302;28;20045;-65
2021/07/06 02:27:58;;;;;;;10.65;8.95;;;21.00;99.90;;;;;;5057972;28;20166;-67
2021/07/06 02:30:24;;;;;;;10.88;9.77;;;21.00;99.90;;;;;;5017740;28;20044;-60
2021/07/06 02:32:51;;;;;;;11.05;9.75;;;20.90;99.90;;;;;;5056629;28;20462;-65
2021/07/06 02:35:18;;;;;;;11.23;10.02;;;20.90;99.90;;;;;;5051517;28;20049;-68
2021/07/06 02:37:44;;;;;;;10.95;9.85;;;20.80;99.90;;;;;;5037437;28;20040;-58
2021/07/06 02:40:12;;;;;;;10.45;9.35;;;20.80;99.90;;;;;;5039509;28;20025;-59
2021/07/06 02:42:39;;;;;;;10.55;8.95;;;20.70;99.90;;;;;;5046483;28;20549;-63
2021/07/06 02:45:09;;;;;;;10.07;8.80;;;20.70;99.90;;;;;;5035946;28;20033;-61
2021/07/06 02:47:38;;;;;;;10.45;9.50;;;20.70;99.90;;;;;;5047061;28;20052;-60
2021/07/06 02:50:06;;;;;;;11.57;10.40;;;20.70;99.90;;;;;;5041347;28;20474;-62
2021/07/06 02:52:32;;;;;;;12.55;11.32;;;20.70;99.90;;;;;;5051271;28;20037;-56
2021/07/06 02:54:58;;;;;;;12.70;10.38;;;20.60;99.90;;;;;;5058140;28;20162;-59
2021/07/06 02:57:39;;;;;;;10.13;9.23;;;20.60;99.90;;;;;;5060637;28;20062;-62
2021/07/06 03:00:08;;;;;;;11.30;10.10;;;20.60;99.90;;;;;;5036682;28;20104;-62
2021/07/06 03:02:34;;;;;;;10.70;9.52;;;20.50;99.90;;;;;;5043035;28;20403;-61
2021/07/06 03:05:00;;;;;;;11.32;10.05;;;20.50;99.90;;;;;;5044844;28;20045;-62
2021/07/06 03:07:26;;;;;;;11.45;9.98;;;20.50;99.90;;;;;;5028960;28;20087;-62
2021/07/06 03:09:52;;;;;;;11.95;9.25;;;20.50;99.90;;;;;;5042853;28;20041;-61
2021/07/06 03:12:18;;;;;;;10.70;9.60;;;20.40;99.90;;;;;;5044154;28;20064;-61
2021/07/06 03:14:43;;;;;;;15.70;10.50;;;20.50;99.90;;;;;;5039415;28;20037;-60
2021/07/06 03:17:09;;;;;;;11.55;10.30;;;20.40;99.90;;;;;;5050329;28;20037;-63
2021/07/06 03:19:35;;;;;;;13.07;9.93;;;20.40;99.90;;;;;;5038646;28;20866;-66
2021/07/06 03:22:00;;;;;;;11.15;9.73;;;20.50;99.90;;;;;;5041595;28;20017;-64
2021/07/06 03:24:26;;;;;;;10.75;9.70;;;20.50;99.90;;;;;;5040498;28;20465;-58
2021/07/06 03:26:52;;;;;;;11.07;9.80;;;20.50;99.90;;;;;;5051206;28;20035;-60
2021/07/06 03:29:18;;;;;;;11.63;10.43;;;20.50;99.90;;;;;;5048240;28;20033;-61
2021/07/06 03:31:43;;;;;;;11.45;10.25;;;20.50;99.90;;;;;;5075135;28;20037;-64
2021/07/06 03:34:09;;;;;;;11.80;10.60;;;20.50;99.90;;;;;;5045560;28;20033;-64
2021/07/06 03:36:35;;;;;;;11.15;10.05;;;20.50;99.90;;;;;;5082539;28;20028;-63
2021/07/06 03:39:00;;;;;;;13.73;9.85;;;20.50;99.90;;;;;;5083810;28;20020;-56
2021/07/06 03:41:26;;;;;;;11.45;10.35;;;20.50;99.90;;;;;;5081552;28;20036;-62
2021/07/06 03:43:52;;;;;;;12.20;10.07;;;20.40;99.90;;;;;;5074113;28;20020;-62
2021/07/06 03:46:17;;;;;;;11.38;10.27;;;20.50;99.90;;;;;;5067977;28;20037;-62
2021/07/06 03:48:43;;;;;;;10.93;9.82;;;20.50;99.90;;;;;;5077522;28;20120;-64
2021/07/06 03:51:09;;;;;;;12.05;10.27;;;20.50;99.90;;;;;;5078560;28;20035;-63
2021/07/06 03:53:35;;;;;;;11.23;10.13;;;20.50;99.90;;;;;;5073678;28;20032;-64
2021/07/06 03:56:00;;;;;;;11.75;10.35;;;20.60;99.90;;;;;;5060875;28;20044;-65
2021/07/06 03:58:26;;;;;;;12.38;10.05;;;20.60;99.90;;;;;;5074666;28;20021;-60
2021/07/06 04:00:52;;;;;;;11.95;10.63;;;20.70;99.90;;;;;;5083576;28;20495;-56
2021/07/06 04:03:17;;;;;;;11.23;9.85;;;20.70;99.90;;;;;;5058574;28;20037;-64
2021/07/06 04:05:43;;;;;;;11.32;10.13;;;20.70;99.90;;;;;;5070363;28;20035;-58
2021/07/06 04:08:09;;;;;;;12.88;9.98;;;20.80;99.90;;;;;;5058866;28;20082;-66
2021/07/06 04:10:35;;;;;;;11.23;9.70;;;20.80;99.90;;;;;;5084137;28;20301;-56
2021/07/06 04:13:01;;;;;;;10.15;8.57;;;20.90;99.90;;;;;;5075607;28;20048;-60
2021/07/06 04:15:27;;;;;;;11.60;10.30;;;20.90;99.90;;;;;;5062606;28;20071;-60
2021/07/06 04:17:52;;;;;;;12.43;10.07;;;20.90;99.90;;;;;;5044619;28;20037;-63
2021/07/06 04:20:18;;;;;;;11.10;9.93;;;21.00;99.90;;;;;;5073854;28;20032;-60
2021/07/06 04:22:45;;;;;;;11.35;9.77;;;21.00;99.90;;;;;;5068361;28;20039;-62
2021/07/06 04:25:12;;;;;;;11.63;8.80;;;21.10;99.90;;;;;;5070830;28;20060;-66
2021/07/06 04:27:38;;;;;;;12.90;10.10;;;21.20;99.90;;;;;;5080525;28;20958;-62
2021/07/06 04:30:06;;;;;;;10.35;8.93;;;21.30;99.90;;;;;;5082139;28;20375;-62
2021/07/06 04:32:32;;;;;;;9.38;8.38;;;21.30;99.90;;;;;;5073655;28;20036;-59
2021/07/06 04:34:57;;;;;;;10.43;9.25;;;21.40;99.90;;;;;;5086121;28;20521;-65
2021/07/06 04:37:23;;;;;;;11.10;9.25;;;21.50;99.90;;;;;;5081992;28;20028;-61
2021/07/06 04:39:49;;;;;;;12.30;9.52;;;21.60;99.90;;;;;;5063414;28;20043;-63
2021/07/06 04:42:16;;;;;;;10.35;8.65;;;21.50;99.90;;;;;;5080106;28;20087;-61
2021/07/06 04:44:43;;;;;;;10.15;9.10;;;21.70;99.90;;;;;;5070276;28;20115;-62
2021/07/06 04:47:08;;;;;;;9.43;8.32;;;21.70;99.90;;;;;;5052048;28;20051;-64
2021/07/06 04:49:34;;;;;;;10.32;8.18;;;21.80;99.90;;;;;;5071073;28;20028;-60
2021/07/06 04:52:00;;;;;;;11.68;9.27;;;21.80;99.90;;;;;;5072429;28;20032;-64
2021/07/06 04:54:26;;;;;;;10.63;8.48;;;21.90;99.90;;;;;;5039268;28;20396;-68
2021/07/06 04:56:53;;;;;;;10.60;9.10;;;;;;;;;;5071322;28;20081;-64
2021/07/06 04:59:20;;;;;;;9.85;8.82;;;22.00;99.90;;;;;;5063638;28;20361;-62
2021/07/06 05:01:46;;;;;;;11.00;8.43;;;22.00;99.90;;;;;;5070062;28;20028;-63
2021/07/06 05:04:13;;;;;;;12.20;8.40;;;22.20;99.90;;;;;;5078252;28;20060;-64
2021/07/06 05:06:39;;;;;;;11.00;8.63;;;22.30;99.90;;;;;;5069689;28;20476;-69
2021/07/06 05:09:05;;;;;;;10.32;8.15;;;22.40;99.90;;;;;;5070486;28;20028;-62
2021/07/06 05:11:31;;;;;;;12.15;9.07;;;22.40;99.90;;;;;;5066257;28;20040;-58
2021/07/06 05:13:56;;;;;;;11.63;8.88;;;22.30;99.90;;;;;;5066955;28;20156;-63
2021/07/06 05:16:22;;;;;;;10.68;8.02;;;22.20;99.90;;;;;;5063732;28;20116;-61
2021/07/06 05:18:48;;;;;;;11.38;8.48;;;22.30;99.90;;;;;;5065982;28;20039;-63
2021/07/06 05:21:16;;;;;;;12.02;8.77;;;22.40;99.90;;;;;;5061758;28;20040;-58
2021/07/06 05:23:42;;;;;;;12.48;8.52;;;22.40;99.90;;;;;;5076123;28;20481;-61
2021/07/06 05:26:08;;;;;;;11.18;8.13;;;22.50;99.90;;;;;;5076352;28;20037;-57
2021/07/06 05:28:33;;;;;;;11.77;8.15;;;22.40;99.90;;;;;;5026776;28;20102;-56
2021/07/06 05:30:59;;;;;;;10.90;8.25;;;22.50;99.90;;;;;;5067714;28;20020;-56
2021/07/06 05:33:25;;;;;;;11.40;8.98;;;22.50;99.90;;;;;;5073903;28;20102;-59
2021/07/06 05:35:51;;;;;;;9.60;8.43;;;22.50;99.90;;;;;;5081364;28;20118;-56
2021/07/06 05:38:16;;;;;;;11.52;9.07;;;22.50;99.90;;;;;;5069628;28;20024;-58
2021/07/06 05:40:43;;;;;;;10.32;8.27;;;22.50;99.90;;;;;;5079216;28;20115;-58
2021/07/06 05:43:10;;;;;;;10.60;8.68;;;22.60;99.90;;;;;;5078027;28;20495;-56
2021/07/06 05:45:36;;;;;;;11.02;8.55;;;22.70;99.90;;;;;;5077048;28;20440;-56
2021/07/06 05:48:03;;;;;;;13.55;8.82;;;22.80;99.90;;;;;;5076835;28;20033;-58
2021/07/06 05:50:29;;;;;;;12.23;8.68;;;22.90;99.90;;;;;;5084873;28;20485;-59
2021/07/06 05:52:55;;;;;;;10.55;8.40;;;23.00;99.90;;;;;;5080139;28;20487;-59
2021/07/06 05:55:21;;;;;;;11.43;8.82;;;22.90;99.90;;;;;;5065955;28;20025;-56
2021/07/06 05:57:46;;;;;;;11.32;8.65;;;23.00;99.90;;;;;;5085663;28;20052;-60
2021/07/06 06:00:14;;;;;;;9.70;7.55;;;23.10;99.90;;;;;;5074329;28;20475;-56
2021/07/06 06:02:40;;;;;;;8.57;7.45;;;23.30;99.90;;;;;;5079261;28;20020;-60
2021/07/06 06:05:07;;;;;;;11.15;7.82;;;23.30;99.90;;;;;;5077885;28;20347;-59
2021/07/06 06:07:41;;;;;;;9.23;7.22;;;23.50;99.90;;;;;;5070129;28;20525;-59
2021/07/06 06:10:08;;;;;;;13.50;8.18;;;23.60;99.90;;;;;;5072171;28;20032;-58
2021/07/06 06:12:35;;;;;;;10.13;7.63;;;23.70;99.90;;;;;;5051975;28;20044;-55
2021/07/06 06:15:01;;;;;;;9.55;7.50;;;23.70;99.90;;;;;;5075751;28;20030;-56
2021/07/06 06:17:26;;;;;;;8.45;7.13;;;23.70;99.90;;;;;;5083735;28;20112;-56
2021/07/06 06:19:52;;;;;;;8.55;7.63;;;23.70;99.90;;;;;;5077610;28;20119;-57
2021/07/06 06:22:18;;;;;;;8.82;7.93;;;23.70;99.90;;;;;;5086537;28;20106;-59
2021/07/06 06:24:44;;;;;;;11.23;6.93;;;24.10;99.90;;;;;;5073913;28;20035;-58
2021/07/06 06:27:09;;;;;;;8.93;8.02;;;24.30;99.90;;;;;;5069124;28;20033;-57
2021/07/06 06:29:36;;;;;;;11.55;7.35;;;;;;;;;;5079657;28;20028;-59
2021/07/06 06:32:01;;;;;;;8.13;7.03;;;24.40;99.90;;;;;;5075660;28;20032;-59
2021/07/06 06:34:28;;;;;;;10.70;6.75;;;;;;;;;;5081796;28;20391;-57
2021/07/06 06:36:53;;;;;;;9.38;7.00;;;24.60;99.90;;;;;;5082035;28;20036;-56
2021/07/06 06:39:20;;;;;;;10.40;7.47;;;24.40;99.90;;;;;;5055949;28;20028;-61
2021/07/06 06:41:46;;;;;;;9.77;7.43;;;;;;;;;;5084372;28;20036;-59
2021/07/06 06:44:11;;;;;;;9.32;7.72;;;24.70;99.90;;;;;;5075983;28;20020;-59
2021/07/06 06:46:37;;;;;;;10.07;6.88;;;24.70;99.90;;;;;;5078018;28;20023;-61
2021/07/06 06:49:04;;;;;;;13.07;7.97;;;24.80;99.90;;;;;;5078380;28;20066;-56
2021/07/06 06:51:31;;;;;;;7.80;6.68;;;25.00;99.90;;;;;;5078626;28;20032;-57
2021/07/06 06:53:57;;;;;;;11.10;6.22;;;;;;;;;;5081119;28;20051;-57
2021/07/06 06:56:23;;;;;;;8.32;6.40;;;25.30;99.90;;;;;;5068512;28;20399;-57
2021/07/06 06:58:49;;;;;;;9.13;6.93;;;;;;;;;;5072173;28;20028;-58
2021/07/06 07:01:15;;;;;;;9.90;6.60;;;25.40;99.90;;;;;;5073009;28;20135;-55
2021/07/06 07:03:41;;;;;;;8.85;6.32;;;25.50;99.90;;;;;;5042676;28;20119;-57
2021/07/06 07:06:07;;;;;;;8.43;5.97;;;25.80;99.90;;;;;;5072089;28;20070;-56
2021/07/06 07:08:32;;;;;;;10.27;6.15;;;25.80;99.90;;;;;;5076757;28;20041;-58
2021/07/06 07:10:58;;;;;;;8.68;6.65;;;25.90;99.90;;;;;;5079179;28;20098;-59
2021/07/06 07:13:26;;;;;;;8.43;7.05;;;26.00;99.90;;;;;;5076414;28;20132;-61
2021/07/06 07:15:52;;;;;;;7.80;6.35;;;25.80;99.90;;;;;;5045834;28;20515;-60
2021/07/06 07:18:18;;;;;;;8.10;6.38;;;25.80;99.90;;;;;;5067899;28;20039;-61
2021/07/06 07:20:44;;;;;;;10.30;6.30;;;;;;;;;;5062423;28;20040;-61
2021/07/06 07:23:11;;;;;;;9.93;6.70;;;26.10;99.90;;;;;;5077774;28;20032;-57
2021/07/06 07:25:37;;;;;;;12.07;6.60;;;;;;;;;;5071578;28;20105;-60
2021/07/06 07:28:03;;;;;;;10.32;6.72;;;;;;;;;;5076571;28;20046;-58
2021/07/06 07:30:29;;;;;;;10.80;5.97;;;26.40;99.90;;;;;;5075189;28;20595;-56
2021/07/06 07:32:55;;;;;;;10.85;6.40;;;26.60;99.90;;;;;;5067187;28;20051;-56
2021/07/06 07:35:21;;;;;;;9.82;7.47;;;26.70;99.90;;;;;;5067288;28;20393;-58
2021/07/06 07:37:47;;;;;;;10.60;6.57;;;26.80;99.90;;;;;;5071583;28;20093;-58
2021/07/06 07:40:16;;;;;;;7.90;6.03;;;26.90;99.90;;;;;;5068162;28;20028;-58
2021/07/06 07:42:42;;;;;;;8.70;5.90;;;27.00;99.90;;;;;;5073660;28;20040;-59
2021/07/06 07:45:09;;;;;;;8.88;6.60;;;26.80;99.90;;;;;;5084060;28;20036;-62
2021/07/06 07:47:34;;;;;;;7.45;6.43;;;26.60;99.90;;;;;;5059588;28;20040;-64
2021/07/06 07:50:02;;;;;;;7.30;6.05;;;26.60;99.90;;;;;;5049498;28;20479;-59
2021/07/06 07:52:28;;;;;;;7.65;5.80;;;26.70;99.90;;;;;;5068191;28;20056;-58
2021/07/06 07:54:54;;;;;;;6.63;5.82;;;27.00;99.90;;;;;;5063433;28;20020;-61
2021/07/06 07:57:25;;;;;;;7.22;5.70;;;27.10;99.70;;;;;;5057713;28;20025;-61
2021/07/06 07:59:52;;;;;;;;;;;27.20;98.90;;;;;;5067776;28;20056;-58
2021/07/06 08:02:18;;;;;;;8.25;5.90;;;;;;;;;;5092954;28;20343;-59
2021/07/06 08:04:43;;;;;;;8.65;6.18;;;27.30;98.90;;;;;;5050873;28;20032;-56
2021/07/06 08:07:10;;;;;;;8.27;6.28;;;27.30;99.00;;;;;;5077237;28;20040;-54
2021/07/06 08:09:37;;;;;;;9.40;5.30;;;27.30;99.20;;;;;;5077948;28;20028;-56
2021/07/06 08:12:04;;;;;;;8.48;6.18;;;27.70;98.50;;;;;;5074610;28;20036;-57
2021/07/06 08:14:30;;;;;;;7.90;5.13;;;27.90;97.10;;;;;;5045582;28;20040;-57
2021/07/06 08:16:57;;;;;;;9.15;6.43;;;27.90;96.90;;;;;;5076852;28;20119;-56
2021/07/06 08:19:23;;;;;;;11.00;6.18;;;27.80;96.90;;;;;;5072674;28;20434;-58
2021/07/06 08:21:50;;;;;;;8.18;6.00;;;27.90;97.20;;;;;;5088908;28;20055;-57
2021/07/06 08:24:16;;;;;;;8.55;6.05;;;27.90;97.30;;;;;;5076875;28;20479;-57
2021/07/06 08:26:42;;;;;;;10.55;6.28;;;27.80;97.00;;;;;;5085473;28;20412;-56
2021/07/06 08:29:08;;;;;;;6.28;5.55;;;28.20;96.20;;;;;;5079153;28;21097;-57
2021/07/06 08:31:34;;;;;;;7.93;6.18;;;28.10;97.50;;;;;;5076454;28;20028;-57
2021/07/06 08:34:00;;;;;;;7.15;5.32;;;28.20;95.90;;;;;;5077263;28;20032;-59
2021/07/06 08:36:26;;;;;;;6.07;5.45;;;;;;;;;;5082467;28;20078;-57
2021/07/06 08:38:52;;;;;;;10.02;5.95;;;;;;;;;;5076943;28;20028;-56
2021/07/06 08:41:18;;;;;;;9.30;6.28;;;28.50;94.50;;;;;;5083009;28;20040;-57
2021/07/06 08:43:43;;;;;;;6.78;5.43;;;28.60;94.80;;;;;;5068749;28;20028;-57
2021/07/06 08:46:19;;;;;;;8.30;5.25;;;30.00;99.90;;;;;;5071751;28;20028;-57
2021/07/06 08:48:47;;;;;;;7.30;5.05;;;30.70;95.00;;;;;;5054379;28;20041;-57
2021/07/06 08:51:21;;;;;;;7.72;5.22;;;31.90;90.60;;;;;;5073789;28;20032;-59
2021/07/06 08:53:47;;;;;;;6.22;5.53;;;32.70;89.10;;;;;;5078760;28;20036;-57
2021/07/06 08:56:14;;;;;;;7.03;5.55;;;33.00;84.40;;;;;;5080081;28;20017;-58
2021/07/06 08:58:40;;;;;;;8.60;5.65;;;32.40;84.70;;;;;;5080664;28;20387;-59
2021/07/06 09:01:06;;;;;;;6.93;5.10;;;33.10;83.10;;;;;;5069228;28;20032;-56
2021/07/06 09:03:54;;;;;;;7.45;5.20;;;33.60;81.90;;;;;;5079769;28;20039;-56
2021/07/06 09:06:24;;;;;;;5.10;4.60;;;35.30;78.90;;;;;;5068586;28;20072;-57
2021/07/06 09:08:52;;;;;;;5.72;4.93;;;35.70;74.80;;;;;;5075609;28;20027;-57
2021/07/06 09:11:21;;;;;;;7.93;4.50;;;35.20;74.20;;;;;;5079861;28;20112;-57
2021/07/06 09:13:48;;;;;;;6.22;4.75;;;36.50;70.10;;;;;;5079162;28;20039;-57
2021/07/06 09:16:25;;;;;;;7.82;4.68;;;;;;;;;;5070717;28;20033;-57
2021/07/06 09:18:51;;;;;;;6.30;5.25;;;38.70;89.80;;;;;;5078480;28;20379;-57
2021/07/06 09:21:17;;;;;;;7.55;4.30;;;39.60;65.80;;;;;;5077801;28;20037;-57
2021/07/06 09:23:44;;;;;;;5.60;4.72;;;40.80;62.40;;;;;;5075157;28;20456;-58
2021/07/06 09:26:15;;;;;;;11.65;5.32;;;40.60;61.10;;;;;;5075478;28;20500;-58
2021/07/06 09:28:43;;;;;;;8.60;5.00;;;39.90;58.80;;;;;;5077266;28;20103;-57
2021/07/06 09:31:25;;;;;;;6.78;4.43;;;38.90;59.60;;;;;;5078554;28;20277;-58
2021/07/06 09:33:57;;;;;;;5.50;4.35;;;40.00;59.50;;;;;;5076116;28;20062;-57
2021/07/06 09:36:32;;;;;;;6.07;4.90;;;39.20;59.70;;;;;;5077588;28;20052;-57
2021/07/06 09:39:04;;;;;;;9.88;4.32;;;42.00;58.80;;;;;;5068796;28;20426;-57
2021/07/06 09:41:31;;;;;;;7.20;4.90;;;42.00;56.20;;;;;;5082592;28;20382;-57
2021/07/06 09:44:18;;;;;;;6.70;4.88;;;43.80;55.50;;;;;;5077837;28;20150;-57
2021/07/06 09:47:08;;;;;;;6.45;4.57;;;43.90;53.30;;;;;;5068054;28;20048;-57
2021/07/06 09:49:37;;;;;;;13.23;5.18;;;43.10;54.70;;;;;;5039038;28;20051;-57
2021/07/06 09:52:14;;;;;;;6.88;4.38;;;42.90;54.30;;;;;;5078406;28;20095;-57
2021/07/06 09:54:52;;;;;;;7.43;3.97;;;42.20;53.10;;;;;;5085281;28;20047;-56
2021/07/06 09:57:30;;;;;;;7.85;4.22;;;41.80;52.30;;;;;;5037945;28;20502;-57
2021/07/06 09:59:57;;;;;;;5.45;4.22;;;43.60;54.10;;;;;;5071756;28;20024;-57
2021/07/06 10:02:24;;;;;;;4.65;4.10;;;43.00;51.90;;;;;;5078385;28;20020;-57
2021/07/06 10:04:53;;;;;;;6.97;4.50;;;44.10;50.80;;;;;;5045456;28;20039;-56
2021/07/06 10:07:23;;;;;;;5.97;4.88;;;44.40;50.60;;;;;;5074429;28;20060;-58
2021/07/06 10:09:51;;;;;;;8.95;5.05;;;44.40;50.30;;;;;;5048886;28;20044;-58
2021/07/06 10:12:19;;;;;;;11.02;5.50;;;44.60;51.30;;;;;;5079021;28;20025;-55
2021/07/06 10:14:45;;;;;;;7.38;4.40;;;45.10;49.60;;;;;;5061518;28;20127;-55
2021/07/06 10:17:12;;;;;;;7.60;5.03;;;46.20;50.00;;;;;;5076935;28;20032;-55
2021/07/06 10:19:42;;;;;;;6.38;5.05;;;47.70;48.80;;;;;;5068562;28;20040;-56
2021/07/06 10:22:09;;;;;;;8.10;4.78;;;48.50;47.50;;;;;;5042038;28;20052;-55
2021/07/06 10:24:46;;;;;;;7.68;5.00;;;48.20;46.50;;;;;;5047394;28;20462;-55
2021/07/06 10:27:23;;;;;;;7.90;4.63;;;46.80;51.80;;;;;;5034058;28;20091;-55
2021/07/06 10:30:09;;;;;;;7.88;5.00;;;46.70;46.50;;;;;;5056281;28;20021;-55
2021/07/06 10:32:52;;;;;;;7.85;4.60;;;47.00;47.70;;;;;;5059303;28;20416;-55
2021/07/06 10:35:41;;;;;;;9.38;4.80;;;48.00;46.20;;;;;;5055179;28;20057;-56
2021/07/06 10:38:25;;;;;;;4.97;4.47;;;48.40;44.50;;;;;;5062953;28;20403;-58
2021/07/06 10:40:50;;;;;;;4.85;4.20;;;47.20;45.00;;;;;;5058706;28;20033;-58
2021/07/06 10:43:37;;;;;;;9.68;7.50;;;48.20;45.10;;;;;;5056196;28;20047;-59
2021/07/06 10:46:16;;;;;;;6.95;4.38;;;48.70;44.40;;;;;;5056863;28;20040;-58
2021/07/06 10:48:44;;;;;;;5.80;4.72;;;45.30;46.10;;;;;;5034435;28;20048;-56
2021/07/06 10:51:30;;;;;;;7.85;4.70;;;43.50;47.70;;;;;;5047243;28;20561;-56
2021/07/06 10:54:16;;;;;;;5.70;5.07;;;44.80;47.20;;;;;;5067316;28;20059;-55
2021/07/06 10:56:45;;;;;;;7.03;4.72;;;44.40;47.40;;;;;;5079063;28;20024;-55
2021/07/06 10:59:26;;;;;;;8.88;4.70;;;44.90;47.20;;;;;;5071294;28;20388;-54
2021/07/06 11:01:54;;;;;;;5.07;4.68;;;43.10;47.60;;;;;;5076508;28;20035;-55
2021/07/06 11:04:47;;;;;;;5.90;4.60;;;43.80;47.50;;;;;;5094135;28;20040;-56
2021/07/06 11:07:37;;;;;;;10.43;5.50;;;45.00;46.40;;;;;;5072861;28;20039;-57
2021/07/06 11:10:04;;;;;;;6.53;4.40;;;43.50;48.20;;;;;;5069480;28;20055;-55
2021/07/06 11:12:44;;;;;;;6.50;4.30;;;44.90;46.20;;;;;;5039655;28;20052;-56
2021/07/06 11:15:12;;;;;;;7.57;4.90;;;46.00;44.40;;;;;;5080611;28;20475;-55
2021/07/06 11:17:45;;;;;;;7.22;4.47;;;44.30;45.60;;;;;;5072302;28;20036;-56
2021/07/06 11:20:29;;;;;;;6.63;4.68;;;46.90;44.70;;;;;;5070224;28;20029;-58
2021/07/06 11:22:56;;;;;;;17.50;15.73;;;48.10;43.90;;;;;;5072823;28;20484;-58
2021/07/06 11:25:35;;;;;;;7.75;4.70;;;51.00;44.10;;;;;;5055219;28;20040;-56
2021/07/06 11:28:06;;;;;;;7.72;4.60;;;49.20;42.60;;;;;;5078578;28;20044;-56
2021/07/06 11:30:36;;;;;;;7.53;5.10;;;49.40;43.70;;;;;;5055366;28;20044;-56
2021/07/06 11:33:07;;;;;;;6.57;4.30;;;50.30;43.70;;;;;;5074846;28;20045;-56
2021/07/06 11:35:36;;;;;;;6.93;4.55;;;51.40;42.20;;;;;;5078019;28;20040;-56
2021/07/06 11:38:10;;;;;;;5.22;4.45;;;52.80;56.00;;;;;;5076532;28;20032;-55
2021/07/06 11:40:38;;;;;;;4.72;3.95;;;50.00;43.30;;;;;;5081219;28;20124;-55
2021/07/06 11:43:04;;;;;;;6.82;4.40;;;46.80;43.30;;;;;;5079395;28;20039;-55
2021/07/06 11:45:31;;;;;;;5.95;4.60;;;44.90;45.60;;;;;;5074025;28;20043;-56
2021/07/06 11:48:10;;;;;;;6.90;4.70;;;;;;;;;;5075857;28;20103;-55
2021/07/06 11:50:38;;;;;;;7.70;4.50;;;48.70;59.90;;;;;;5082774;28;20032;-55
2021/07/06 11:53:04;;;;;;;5.03;4.53;;;45.30;45.10;;;;;;5075562;28;20047;-55
2021/07/06 11:55:30;;;;;;;6.35;4.82;;;;;;;;;;5083502;28;20025;-56
2021/07/06 11:57:58;;;;;;;7.75;4.60;;;48.40;44.00;;;;;;5084378;28;20504;-56
2021/07/06 12:00:26;;;;;;;9.73;5.45;;;50.50;43.80;;;;;;5073306;28;20029;-56
2021/07/06 12:03:26;;;;;;;5.95;5.10;;;47.80;42.50;;;;;;5077147;28;20119;-56
2021/07/06 12:06:06;;;;;;;5.95;5.05;;;49.20;41.80;;;;;;5080262;28;20479;-56
2021/07/06 12:08:40;;;;;;;8.40;4.72;;;51.20;41.30;;;;;;5079344;28;20029;-57
2021/07/06 12:11:09;;;;;;;5.78;4.72;;;52.30;42.00;;;;;;5077007;28;20036;-56
2021/07/06 12:13:41;;;;;;;6.80;4.90;;;52.30;39.90;;;;;;5083751;28;20205;-57
2021/07/06 12:16:13;;;;;;;5.22;4.72;;;52.00;39.90;;;;;;5075377;28;20072;-56
2021/07/06 12:19:00;;;;;;;8.43;6.28;;;53.00;49.70;;;;;;5076908;28;20039;-57
2021/07/06 12:21:36;;;;;;;4.88;4.38;;;55.60;55.80;;;;;;5069896;28;20037;-56
2021/07/06 12:24:31;;;;;;;6.93;4.82;;;56.00;39.90;;;;;;5065341;28;20025;-58
2021/07/06 12:26:57;;;;;;;7.80;4.30;;;52.50;38.00;;;;;;5072129;28;20039;-57
2021/07/06 12:29:30;;;;;;;5.35;4.85;;;52.20;37.80;;;;;;5069170;28;20387;-56
2021/07/06 12:31:56;;;;;;;4.55;4.03;;;55.00;38.80;;;;;;5064753;28;20041;-55
2021/07/06 12:34:36;;;;;;;8.52;4.55;;;55.80;39.50;;;;;;5064270;28;20045;-57
2021/07/06 12:37:02;;;;;;;5.00;4.53;;;50.90;39.40;;;;;;5033507;28;20049;-54
2021/07/06 12:39:38;;;;;;;6.88;4.68;;;48.10;40.60;;;;;;4998370;28;20108;-55
2021/07/06 12:42:20;;;;;;;5.30;4.53;;;46.60;42.30;;;;;;4997817;28;20080;-55
2021/07/06 12:44:58;;;;;;;5.53;4.78;;;49.90;42.70;;;;;;5036637;28;20083;-56
2021/07/06 12:47:31;;;;;;;5.88;4.55;;;50.10;41.30;;;;;;5034946;28;20132;-56
2021/07/06 12:50:11;;;;;;;5.35;4.55;;;50.50;41.00;;;;;;5038745;28;20091;-56
2021/07/06 12:52:39;;;;;;;5.25;4.63;;;50.20;41.20;;;;;;5040600;28;20051;-56